Berlin, New Hampshire
Current Conditions -  °F | °C
As of 6:52 PM on Thursday 18 Dec 2014 (Local Time) from KBML Reporting Station
Overcast Overcast  
Wind Chill: 22°   Ceiling: 1300
Heat Index: 29°   Visibility: 10mi
Dew Point: 23°   Wind: 7mph
Humidity: 78%   Direction: 290°WNW
Pressure: 29.79"   Gusts: NA
Location:  44.47°N, 71.18°W
Report Text: KBML 182352Z AUTO 29006KT 10SM OVC013 M02/M05 A2979 RMK AO2 SLP101 60000 T10171050 10000 21017 51018
Loading
Personal Weather Stations






























Interactive Weather Map New forecast layout! Learn more

10-Day Weather Forecast

Advertisements
Track Severe Weather on mobile